sensor_id;sensor_type;location;lat;lon;timestamp;temperature;humidity
22544;DHT22;11438;52.044;8.716;2023-09-12T00:00:08;25.50;95.50
22544;DHT22;11438;52.044;8.716;2023-09-12T00:02:34;25.50;95.60
22544;DHT22;11438;52.044;8.716;2023-09-12T00:04:59;25.50;95.60
22544;DHT22;11438;52.044;8.716;2023-09-12T00:07:25;25.50;95.60
22544;DHT22;11438;52.044;8.716;2023-09-12T00:09:50;25.50;95.70
22544;DHT22;11438;52.044;8.716;2023-09-12T00:12:16;25.50;95.70
22544;DHT22;11438;52.044;8.716;2023-09-12T00:14:42;25.40;95.70
22544;DHT22;11438;52.044;8.716;2023-09-12T00:17:09;25.50;95.80
22544;DHT22;11438;52.044;8.716;2023-09-12T00:19:34;25.40;95.70
22544;DHT22;11438;52.044;8.716;2023-09-12T00:22:00;25.40;95.60
22544;DHT22;11438;52.044;8.716;2023-09-12T00:24:26;25.40;95.70
22544;DHT22;11438;52.044;8.716;2023-09-12T00:26:51;25.30;95.60
22544;DHT22;11438;52.044;8.716;2023-09-12T00:29:17;25.30;95.70
22544;DHT22;11438;52.044;8.716;2023-09-12T00:31:42;25.20;95.60
22544;DHT22;11438;52.044;8.716;2023-09-12T00:34:08;25.20;95.70
22544;DHT22;11438;52.044;8.716;2023-09-12T00:36:33;25.30;95.80
22544;DHT22;11438;52.044;8.716;2023-09-12T00:38:59;25.20;95.70
22544;DHT22;11438;52.044;8.716;2023-09-12T00:41:24;25.20;95.80
22544;DHT22;11438;52.044;8.716;2023-09-12T00:43:50;25.10;95.80
22544;DHT22;11438;52.044;8.716;2023-09-12T00:46:19;25.10;96.30
22544;DHT22;11438;52.044;8.716;2023-09-12T00:48:45;25.10;96.00
22544;DHT22;11438;52.044;8.716;2023-09-12T00:51:11;25.10;96.00
22544;DHT22;11438;52.044;8.716;2023-09-12T00:53:38;25.10;96.40
22544;DHT22;11438;52.044;8.716;2023-09-12T00:56:04;25.00;96.10
22544;DHT22;11438;52.044;8.716;2023-09-12T00:58:29;25.10;96.10
22544;DHT22;11438;52.044;8.716;2023-09-12T01:00:56;25.00;96.20
22544;DHT22;11438;52.044;8.716;2023-09-12T01:03:22;25.00;96.20
22544;DHT22;11438;52.044;8.716;2023-09-12T01:05:47;25.00;96.20
22544;DHT22;11438;52.044;8.716;2023-09-12T01:08:13;25.00;96.30
22544;DHT22;11438;52.044;8.716;2023-09-12T01:10:39;25.00;96.30
22544;DHT22;11438;52.044;8.716;2023-09-12T01:13:05;25.00;96.40
22544;DHT22;11438;52.044;8.716;2023-09-12T01:15:31;24.90;96.50
22544;DHT22;11438;52.044;8.716;2023-09-12T01:17:57;25.00;96.50
22544;DHT22;11438;52.044;8.716;2023-09-12T01:20:27;25.00;96.60
22544;DHT22;11438;52.044;8.716;2023-09-12T01:28:16;24.90;96.80
22544;DHT22;11438;52.044;8.716;2023-09-12T01:30:42;24.80;96.90
22544;DHT22;11438;52.044;8.716;2023-09-12T01:33:11;24.80;97.40
22544;DHT22;11438;52.044;8.716;2023-09-12T01:35:37;24.80;97.20
22544;DHT22;11438;52.044;8.716;2023-09-12T01:38:03;24.80;97.20
22544;DHT22;11438;52.044;8.716;2023-09-12T01:40:36;24.70;97.30
22544;DHT22;11438;52.044;8.716;2023-09-12T01:43:04;24.60;97.40
22544;DHT22;11438;52.044;8.716;2023-09-12T01:45:32;24.60;97.60
22544;DHT22;11438;52.044;8.716;2023-09-12T01:47:58;24.50;97.70
22544;DHT22;11438;52.044;8.716;2023-09-12T01:50:26;24.50;98.00
22544;DHT22;11438;52.044;8.716;2023-09-12T01:52:52;24.50;98.20
22544;DHT22;11438;52.044;8.716;2023-09-12T01:55:18;24.40;98.40
22544;DHT22;11438;52.044;8.716;2023-09-12T01:57:44;24.40;98.40
22544;DHT22;11438;52.044;8.716;2023-09-12T02:00:11;24.30;98.50
22544;DHT22;11438;52.044;8.716;2023-09-12T02:02:38;24.30;98.70
22544;DHT22;11438;52.044;8.716;2023-09-12T02:05:07;24.30;98.80
22544;DHT22;11438;52.044;8.716;2023-09-12T02:07:37;24.30;98.60
22544;DHT22;11438;52.044;8.716;2023-09-12T02:10:03;24.30;98.60
22544;DHT22;11438;52.044;8.716;2023-09-12T02:12:31;24.30;98.60
22544;DHT22;11438;52.044;8.716;2023-09-12T02:14:56;24.30;98.60
22544;DHT22;11438;52.044;8.716;2023-09-12T02:17:22;24.30;98.70
22544;DHT22;11438;52.044;8.716;2023-09-12T02:19:48;24.30;98.60
22544;DHT22;11438;52.044;8.716;2023-09-12T02:22:14;24.30;98.50
22544;DHT22;11438;52.044;8.716;2023-09-12T02:24:39;24.30;98.70
22544;DHT22;11438;52.044;8.716;2023-09-12T02:27:05;24.40;98.70
22544;DHT22;11438;52.044;8.716;2023-09-12T02:29:30;24.30;98.70
22544;DHT22;11438;52.044;8.716;2023-09-12T02:31:58;24.40;98.70
22544;DHT22;11438;52.044;8.716;2023-09-12T02:34:23;24.40;98.80
22544;DHT22;11438;52.044;8.716;2023-09-12T02:36:49;24.40;99.00
22544;DHT22;11438;52.044;8.716;2023-09-12T02:39:14;24.40;99.30
22544;DHT22;11438;52.044;8.716;2023-09-12T02:41:40;24.40;99.50
22544;DHT22;11438;52.044;8.716;2023-09-12T02:44:06;24.40;99.70
22544;DHT22;11438;52.044;8.716;2023-09-12T02:46:32;24.40;99.80
22544;DHT22;11438;52.044;8.716;2023-09-12T02:48:58;24.40;99.90
22544;DHT22;11438;52.044;8.716;2023-09-12T02:51:25;24.40;99.90
22544;DHT22;11438;52.044;8.716;2023-09-12T02:53:51;24.40;99.90
22544;DHT22;11438;52.044;8.716;2023-09-12T02:56:17;24.40;99.90
22544;DHT22;11438;52.044;8.716;2023-09-12T02:58:45;24.40;99.90
22544;DHT22;11438;52.044;8.716;2023-09-12T03:01:17;24.30;99.90
22544;DHT22;11438;52.044;8.716;2023-09-12T03:03:43;24.30;99.90
22544;DHT22;11438;52.044;8.716;2023-09-12T03:06:09;24.30;99.90
22544;DHT22;11438;52.044;8.716;2023-09-12T03:08:35;24.30;99.90
22544;DHT22;11438;52.044;8.716;2023-09-12T03:11:00;24.30;99.90
22544;DHT22;11438;52.044;8.716;2023-09-12T03:13:28;24.30;99.90
22544;DHT22;11438;52.044;8.716;2023-09-12T03:15:53;24.20;99.90
22544;DHT22;11438;52.044;8.716;2023-09-12T03:18:19;24.20;99.90
22544;DHT22;11438;52.044;8.716;2023-09-12T03:20:45;24.20;99.90
22544;DHT22;11438;52.044;8.716;2023-09-12T03:23:10;24.20;99.90
22544;DHT22;11438;52.044;8.716;2023-09-12T03:25:39;24.20;99.90
22544;DHT22;11438;52.044;8.716;2023-09-12T03:28:05;24.20;99.90
22544;DHT22;11438;52.044;8.716;2023-09-12T03:30:36;24.20;99.90
22544;DHT22;11438;52.044;8.716;2023-09-12T03:33:02;24.20;99.90
22544;DHT22;11438;52.044;8.716;2023-09-12T03:35:34;24.20;99.90
22544;DHT22;11438;52.044;8.716;2023-09-12T03:38:00;24.20;99.90
22544;DHT22;11438;52.044;8.716;2023-09-12T03:40:28;24.20;99.90
22544;DHT22;11438;52.044;8.716;2023-09-12T03:42:55;24.20;99.90
22544;DHT22;11438;52.044;8.716;2023-09-12T03:45:20;24.20;99.90
22544;DHT22;11438;52.044;8.716;2023-09-12T03:47:46;24.30;99.90
22544;DHT22;11438;52.044;8.716;2023-09-12T03:50:12;24.20;99.90
22544;DHT22;11438;52.044;8.716;2023-09-12T03:52:39;24.30;99.90
22544;DHT22;11438;52.044;8.716;2023-09-12T03:55:05;24.20;99.90
22544;DHT22;11438;52.044;8.716;2023-09-12T03:57:30;24.30;99.90
22544;DHT22;11438;52.044;8.716;2023-09-12T03:59:56;24.20;99.90
22544;DHT22;11438;52.044;8.716;2023-09-12T04:02:22;24.20;99.90
22544;DHT22;11438;52.044;8.716;2023-09-12T04:04:47;24.20;99.90
22544;DHT22;11438;52.044;8.716;2023-09-12T04:07:13;24.20;99.90
22544;DHT22;11438;52.044;8.716;2023-09-12T04:09:39;24.20;99.90
22544;DHT22;11438;52.044;8.716;2023-09-12T04:12:05;24.20;99.90
22544;DHT22;11438;52.044;8.716;2023-09-12T04:14:32;24.20;99.90
22544;DHT22;11438;52.044;8.716;2023-09-12T04:16:57;24.20;99.90
22544;DHT22;11438;52.044;8.716;2023-09-12T04:19:23;24.20;99.90
22544;DHT22;11438;52.044;8.716;2023-09-12T04:21:48;24.20;99.90
22544;DHT22;11438;52.044;8.716;2023-09-12T04:24:14;24.20;99.90
22544;DHT22;11438;52.044;8.716;2023-09-12T04:26:41;24.20;99.90
22544;DHT22;11438;52.044;8.716;2023-09-12T04:29:06;24.20;99.90
22544;DHT22;11438;52.044;8.716;2023-09-12T04:31:32;24.20;99.90
22544;DHT22;11438;52.044;8.716;2023-09-12T04:33:57;24.10;99.90
22544;DHT22;11438;52.044;8.716;2023-09-12T04:36:23;24.10;99.90
22544;DHT22;11438;52.044;8.716;2023-09-12T04:38:48;24.10;99.90
22544;DHT22;11438;52.044;8.716;2023-09-12T04:41:14;24.10;99.90
22544;DHT22;11438;52.044;8.716;2023-09-12T04:43:42;24.20;99.90
22544;DHT22;11438;52.044;8.716;2023-09-12T04:46:09;24.10;99.90
22544;DHT22;11438;52.044;8.716;2023-09-12T04:48:35;24.20;99.90
22544;DHT22;11438;52.044;8.716;2023-09-12T04:51:00;24.20;99.90
22544;DHT22;11438;52.044;8.716;2023-09-12T04:53:26;24.20;99.90
22544;DHT22;11438;52.044;8.716;2023-09-12T04:55:52;24.20;99.90
22544;DHT22;11438;52.044;8.716;2023-09-12T04:58:18;24.20;99.90
22544;DHT22;11438;52.044;8.716;2023-09-12T05:00:45;24.20;99.90
22544;DHT22;11438;52.044;8.716;2023-09-12T05:03:10;24.20;99.90
22544;DHT22;11438;52.044;8.716;2023-09-12T05:05:36;24.20;99.90
22544;DHT22;11438;52.044;8.716;2023-09-12T05:08:02;24.20;99.90
22544;DHT22;11438;52.044;8.716;2023-09-12T05:10:27;24.20;99.90
22544;DHT22;11438;52.044;8.716;2023-09-12T05:12:53;24.20;99.90
22544;DHT22;11438;52.044;8.716;2023-09-12T05:15:18;24.20;99.90
22544;DHT22;11438;52.044;8.716;2023-09-12T05:17:44;24.10;99.90
22544;DHT22;11438;52.044;8.716;2023-09-12T05:20:10;24.10;99.90
22544;DHT22;11438;52.044;8.716;2023-09-12T05:22:35;24.10;99.90
22544;DHT22;11438;52.044;8.716;2023-09-12T05:25:01;24.10;99.90
22544;DHT22;11438;52.044;8.716;2023-09-12T05:27:26;24.00;99.90
22544;DHT22;11438;52.044;8.716;2023-09-12T05:29:52;24.00;99.90
22544;DHT22;11438;52.044;8.716;2023-09-12T05:32:17;24.00;99.90
22544;DHT22;11438;52.044;8.716;2023-09-12T05:34:43;24.00;99.90
22544;DHT22;11438;52.044;8.716;2023-09-12T05:37:10;24.00;99.90
22544;DHT22;11438;52.044;8.716;2023-09-12T05:39:36;23.90;99.90
22544;DHT22;11438;52.044;8.716;2023-09-12T05:42:01;23.90;99.90
22544;DHT22;11438;52.044;8.716;2023-09-12T05:44:28;23.90;99.90
22544;DHT22;11438;52.044;8.716;2023-09-12T05:46:53;23.90;99.90
22544;DHT22;11438;52.044;8.716;2023-09-12T05:49:19;23.90;99.90
22544;DHT22;11438;52.044;8.716;2023-09-12T05:51:45;23.90;99.90
22544;DHT22;11438;52.044;8.716;2023-09-12T05:54:11;23.80;99.90
22544;DHT22;11438;52.044;8.716;2023-09-12T05:56:39;23.80;99.90
22544;DHT22;11438;52.044;8.716;2023-09-12T05:59:05;23.80;99.90
22544;DHT22;11438;52.044;8.716;2023-09-12T06:01:30;23.80;99.90
22544;DHT22;11438;52.044;8.716;2023-09-12T06:03:56;23.70;99.90
22544;DHT22;11438;52.044;8.716;2023-09-12T06:06:22;23.70;99.90
22544;DHT22;11438;52.044;8.716;2023-09-12T06:08:48;23.70;99.90
22544;DHT22;11438;52.044;8.716;2023-09-12T06:11:13;23.70;99.90
22544;DHT22;11438;52.044;8.716;2023-09-12T06:13:39;23.70;99.90
22544;DHT22;11438;52.044;8.716;2023-09-12T06:16:06;23.70;99.90
22544;DHT22;11438;52.044;8.716;2023-09-12T06:18:32;23.70;99.90
22544;DHT22;11438;52.044;8.716;2023-09-12T06:20:58;23.70;99.90
22544;DHT22;11438;52.044;8.716;2023-09-12T06:23:24;23.60;99.90
22544;DHT22;11438;52.044;8.716;2023-09-12T06:25:49;23.60;99.90
22544;DHT22;11438;52.044;8.716;2023-09-12T06:28:25;23.60;99.90
22544;DHT22;11438;52.044;8.716;2023-09-12T06:30:50;23.60;99.90
22544;DHT22;11438;52.044;8.716;2023-09-12T06:33:16;23.60;99.90
22544;DHT22;11438;52.044;8.716;2023-09-12T06:35:41;23.60;99.90
22544;DHT22;11438;52.044;8.716;2023-09-12T06:38:07;23.60;99.90
22544;DHT22;11438;52.044;8.716;2023-09-12T06:40:32;23.60;99.90
22544;DHT22;11438;52.044;8.716;2023-09-12T06:42:58;23.60;99.90
22544;DHT22;11438;52.044;8.716;2023-09-12T06:45:23;23.60;99.90
22544;DHT22;11438;52.044;8.716;2023-09-12T06:47:49;23.60;99.90
22544;DHT22;11438;52.044;8.716;2023-09-12T06:50:14;23.60;99.90
22544;DHT22;11438;52.044;8.716;2023-09-12T06:52:40;23.60;99.90
22544;DHT22;11438;52.044;8.716;2023-09-12T06:55:06;23.60;99.90
22544;DHT22;11438;52.044;8.716;2023-09-12T06:57:32;23.60;99.90
22544;DHT22;11438;52.044;8.716;2023-09-12T06:59:58;23.60;99.90
22544;DHT22;11438;52.044;8.716;2023-09-12T07:02:23;23.60;99.90
22544;DHT22;11438;52.044;8.716;2023-09-12T07:04:49;23.60;99.90
22544;DHT22;11438;52.044;8.716;2023-09-12T07:07:14;23.60;99.90
22544;DHT22;11438;52.044;8.716;2023-09-12T07:09:40;23.60;99.90
22544;DHT22;11438;52.044;8.716;2023-09-12T07:12:06;23.60;99.90
22544;DHT22;11438;52.044;8.716;2023-09-12T07:14:31;23.60;99.90
22544;DHT22;11438;52.044;8.716;2023-09-12T07:16:57;23.60;99.90
22544;DHT22;11438;52.044;8.716;2023-09-12T07:19:23;23.50;99.90
22544;DHT22;11438;52.044;8.716;2023-09-12T07:21:49;23.60;99.90
22544;DHT22;11438;52.044;8.716;2023-09-12T07:24:14;23.50;99.90
22544;DHT22;11438;52.044;8.716;2023-09-12T07:26:40;23.50;99.90
22544;DHT22;11438;52.044;8.716;2023-09-12T07:29:06;23.50;99.90
22544;DHT22;11438;52.044;8.716;2023-09-12T07:31:31;23.50;99.90
22544;DHT22;11438;52.044;8.716;2023-09-12T07:33:57;23.50;99.90
22544;DHT22;11438;52.044;8.716;2023-09-12T07:36:22;23.50;99.90
22544;DHT22;11438;52.044;8.716;2023-09-12T07:38:48;23.50;99.90
22544;DHT22;11438;52.044;8.716;2023-09-12T07:41:13;23.40;99.90
22544;DHT22;11438;52.044;8.716;2023-09-12T07:43:39;23.40;99.90
22544;DHT22;11438;52.044;8.716;2023-09-12T07:46:05;23.40;99.90
22544;DHT22;11438;52.044;8.716;2023-09-12T07:48:31;23.40;99.90
22544;DHT22;11438;52.044;8.716;2023-09-12T07:50:57;23.40;99.90
22544;DHT22;11438;52.044;8.716;2023-09-12T07:53:23;23.30;99.90
22544;DHT22;11438;52.044;8.716;2023-09-12T07:55:48;23.30;99.90
22544;DHT22;11438;52.044;8.716;2023-09-12T07:58:18;23.30;99.90
22544;DHT22;11438;52.044;8.716;2023-09-12T08:00:47;23.30;99.90
22544;DHT22;11438;52.044;8.716;2023-09-12T08:03:13;23.20;99.90
22544;DHT22;11438;52.044;8.716;2023-09-12T08:05:38;23.20;99.90
22544;DHT22;11438;52.044;8.716;2023-09-12T08:08:04;23.10;99.90
22544;DHT22;11438;52.044;8.716;2023-09-12T08:10:29;23.10;99.90
22544;DHT22;11438;52.044;8.716;2023-09-12T08:12:55;23.10;99.90
22544;DHT22;11438;52.044;8.716;2023-09-12T08:15:21;23.10;99.90
22544;DHT22;11438;52.044;8.716;2023-09-12T08:17:46;23.10;99.90
22544;DHT22;11438;52.044;8.716;2023-09-12T08:20:17;23.10;99.90
22544;DHT22;11438;52.044;8.716;2023-09-12T08:22:43;23.10;99.90
22544;DHT22;11438;52.044;8.716;2023-09-12T08:25:09;23.00;99.90
22544;DHT22;11438;52.044;8.716;2023-09-12T08:27:35;23.10;99.90
22544;DHT22;11438;52.044;8.716;2023-09-12T08:30:01;23.00;99.90
22544;DHT22;11438;52.044;8.716;2023-09-12T08:32:26;23.10;99.90
22544;DHT22;11438;52.044;8.716;2023-09-12T08:34:52;23.10;99.90
22544;DHT22;11438;52.044;8.716;2023-09-12T08:37:17;23.00;99.90
22544;DHT22;11438;52.044;8.716;2023-09-12T08:39:44;23.00;99.90
22544;DHT22;11438;52.044;8.716;2023-09-12T08:42:15;23.00;99.90
22544;DHT22;11438;52.044;8.716;2023-09-12T08:44:42;23.10;99.90
22544;DHT22;11438;52.044;8.716;2023-09-12T08:47:08;23.00;99.90
22544;DHT22;11438;52.044;8.716;2023-09-12T08:49:35;23.00;99.90
22544;DHT22;11438;52.044;8.716;2023-09-12T08:52:03;23.00;99.90
22544;DHT22;11438;52.044;8.716;2023-09-12T08:54:29;23.00;99.90
22544;DHT22;11438;52.044;8.716;2023-09-12T08:56:55;23.00;99.90
22544;DHT22;11438;52.044;8.716;2023-09-12T08:59:21;23.00;99.90
22544;DHT22;11438;52.044;8.716;2023-09-12T09:01:46;22.90;99.90
22544;DHT22;11438;52.044;8.716;2023-09-12T09:04:13;22.90;99.90
22544;DHT22;11438;52.044;8.716;2023-09-12T09:06:40;23.00;99.90
22544;DHT22;11438;52.044;8.716;2023-09-12T09:09:07;22.90;99.90
22544;DHT22;11438;52.044;8.716;2023-09-12T09:11:34;22.90;99.90
22544;DHT22;11438;52.044;8.716;2023-09-12T09:14:01;22.90;99.90
22544;DHT22;11438;52.044;8.716;2023-09-12T09:16:28;23.00;99.90
22544;DHT22;11438;52.044;8.716;2023-09-12T09:18:59;22.90;99.90
22544;DHT22;11438;52.044;8.716;2023-09-12T09:21:30;22.90;99.90
22544;DHT22;11438;52.044;8.716;2023-09-12T09:24:01;22.90;99.90
22544;DHT22;11438;52.044;8.716;2023-09-12T09:26:48;22.90;99.90
22544;DHT22;11438;52.044;8.716;2023-09-12T09:29:18;22.90;99.90
22544;DHT22;11438;52.044;8.716;2023-09-12T09:31:45;22.90;99.90
22544;DHT22;11438;52.044;8.716;2023-09-12T09:34:19;22.90;99.90
22544;DHT22;11438;52.044;8.716;2023-09-12T09:36:53;22.90;99.90
22544;DHT22;11438;52.044;8.716;2023-09-12T09:39:20;22.90;99.90
22544;DHT22;11438;52.044;8.716;2023-09-12T09:41:52;22.90;99.90
22544;DHT22;11438;52.044;8.716;2023-09-12T09:44:18;22.90;99.90
22544;DHT22;11438;52.044;8.716;2023-09-12T09:46:44;22.90;99.90
22544;DHT22;11438;52.044;8.716;2023-09-12T09:49:11;23.00;99.90
22544;DHT22;11438;52.044;8.716;2023-09-12T09:51:44;22.90;99.90
22544;DHT22;11438;52.044;8.716;2023-09-12T09:54:13;22.90;99.90
22544;DHT22;11438;52.044;8.716;2023-09-12T09:56:55;22.90;99.90
22544;DHT22;11438;52.044;8.716;2023-09-12T09:59:26;22.90;99.90
22544;DHT22;11438;52.044;8.716;2023-09-12T10:01:56;22.90;99.90
22544;DHT22;11438;52.044;8.716;2023-09-12T10:04:23;22.90;99.90
22544;DHT22;11438;52.044;8.716;2023-09-12T10:06:49;22.90;99.90
22544;DHT22;11438;52.044;8.716;2023-09-12T10:09:16;22.90;99.90
22544;DHT22;11438;52.044;8.716;2023-09-12T10:11:43;22.90;99.90
22544;DHT22;11438;52.044;8.716;2023-09-12T10:14:13;22.90;99.90
22544;DHT22;11438;52.044;8.716;2023-09-12T10:16:51;22.90;99.90
22544;DHT22;11438;52.044;8.716;2023-09-12T10:19:25;22.90;99.90
22544;DHT22;11438;52.044;8.716;2023-09-12T10:22:12;22.90;99.90
22544;DHT22;11438;52.044;8.716;2023-09-12T10:24:43;22.90;99.90
22544;DHT22;11438;52.044;8.716;2023-09-12T10:27:11;22.90;99.90
22544;DHT22;11438;52.044;8.716;2023-09-12T10:29:37;22.90;99.90
22544;DHT22;11438;52.044;8.716;2023-09-12T10:32:03;22.90;99.90
22544;DHT22;11438;52.044;8.716;2023-09-12T10:34:32;22.90;99.90
22544;DHT22;11438;52.044;8.716;2023-09-12T10:37:01;22.90;99.90
22544;DHT22;11438;52.044;8.716;2023-09-12T10:39:32;22.90;99.90
22544;DHT22;11438;52.044;8.716;2023-09-12T10:41:59;22.90;99.90
22544;DHT22;11438;52.044;8.716;2023-09-12T10:44:27;22.90;99.90
22544;DHT22;11438;52.044;8.716;2023-09-12T10:46:54;22.90;99.90
22544;DHT22;11438;52.044;8.716;2023-09-12T10:49:20;22.90;99.90
22544;DHT22;11438;52.044;8.716;2023-09-12T10:51:47;22.90;99.90
22544;DHT22;11438;52.044;8.716;2023-09-12T10:54:35;22.90;99.90
22544;DHT22;11438;52.044;8.716;2023-09-12T10:57:08;22.90;99.90
22544;DHT22;11438;52.044;8.716;2023-09-12T10:59:34;22.90;99.90
22544;DHT22;11438;52.044;8.716;2023-09-12T11:02:27;22.90;99.90
22544;DHT22;11438;52.044;8.716;2023-09-12T11:05:03;22.90;99.90
22544;DHT22;11438;52.044;8.716;2023-09-12T11:12:49;22.80;99.90
22544;DHT22;11438;52.044;8.716;2023-09-12T11:15:16;22.90;99.90
22544;DHT22;11438;52.044;8.716;2023-09-12T11:17:47;22.90;99.90
22544;DHT22;11438;52.044;8.716;2023-09-12T11:20:14;22.90;99.90
22544;DHT22;11438;52.044;8.716;2023-09-12T11:22:44;22.90;99.90
22544;DHT22;11438;52.044;8.716;2023-09-12T11:28:03;22.90;99.90
22544;DHT22;11438;52.044;8.716;2023-09-12T11:30:29;23.00;99.90
22544;DHT22;11438;52.044;8.716;2023-09-12T11:32:57;23.10;99.90
22544;DHT22;11438;52.044;8.716;2023-09-12T11:35:26;23.10;99.90
22544;DHT22;11438;52.044;8.716;2023-09-12T11:37:54;23.20;99.90
22544;DHT22;11438;52.044;8.716;2023-09-12T11:40:42;23.20;99.90
22544;DHT22;11438;52.044;8.716;2023-09-12T11:43:24;23.30;99.90
22544;DHT22;11438;52.044;8.716;2023-09-12T11:45:51;23.40;99.90
22544;DHT22;11438;52.044;8.716;2023-09-12T11:48:17;23.50;99.90
22544;DHT22;11438;52.044;8.716;2023-09-12T11:50:55;23.50;99.90
22544;DHT22;11438;52.044;8.716;2023-09-12T11:53:25;23.60;99.90
22544;DHT22;11438;52.044;8.716;2023-09-12T11:55:57;23.70;99.90
22544;DHT22;11438;52.044;8.716;2023-09-12T11:58:24;23.70;99.90
22544;DHT22;11438;52.044;8.716;2023-09-12T12:00:52;23.80;99.90
22544;DHT22;11438;52.044;8.716;2023-09-12T12:03:19;23.80;99.90
22544;DHT22;11438;52.044;8.716;2023-09-12T12:05:45;23.90;99.90
22544;DHT22;11438;52.044;8.716;2023-09-12T12:08:11;23.90;99.90
22544;DHT22;11438;52.044;8.716;2023-09-12T12:10:38;24.00;99.90
22544;DHT22;11438;52.044;8.716;2023-09-12T12:13:05;24.00;99.90
22544;DHT22;11438;52.044;8.716;2023-09-12T12:15:31;24.00;99.90
22544;DHT22;11438;52.044;8.716;2023-09-12T12:17:57;24.10;99.90
22544;DHT22;11438;52.044;8.716;2023-09-12T12:20:23;24.20;99.90
22544;DHT22;11438;52.044;8.716;2023-09-12T12:22:49;24.30;99.90
22544;DHT22;11438;52.044;8.716;2023-09-12T12:25:17;24.30;99.90
22544;DHT22;11438;52.044;8.716;2023-09-12T12:27:42;24.40;99.90
22544;DHT22;11438;52.044;8.716;2023-09-12T12:30:10;24.50;99.90
22544;DHT22;11438;52.044;8.716;2023-09-12T12:32:43;24.60;99.90
22544;DHT22;11438;52.044;8.716;2023-09-12T12:35:20;24.60;99.90
22544;DHT22;11438;52.044;8.716;2023-09-12T12:37:48;24.70;99.90
22544;DHT22;11438;52.044;8.716;2023-09-12T12:40:15;24.80;99.90
22544;DHT22;11438;52.044;8.716;2023-09-12T12:42:41;24.80;99.90
22544;DHT22;11438;52.044;8.716;2023-09-12T12:45:17;24.90;99.90
22544;DHT22;11438;52.044;8.716;2023-09-12T12:47:44;25.00;99.90
22544;DHT22;11438;52.044;8.716;2023-09-12T12:50:14;25.00;99.90
22544;DHT22;11438;52.044;8.716;2023-09-12T12:52:40;25.10;99.90
22544;DHT22;11438;52.044;8.716;2023-09-12T12:55:10;25.20;99.90
22544;DHT22;11438;52.044;8.716;2023-09-12T12:57:38;25.30;99.90
22544;DHT22;11438;52.044;8.716;2023-09-12T13:00:15;25.40;99.90
22544;DHT22;11438;52.044;8.716;2023-09-12T13:02:42;25.40;99.90
22544;DHT22;11438;52.044;8.716;2023-09-12T13:05:30;25.50;99.90
22544;DHT22;11438;52.044;8.716;2023-09-12T13:07:58;25.50;99.90
22544;DHT22;11438;52.044;8.716;2023-09-12T13:10:24;25.60;99.90
22544;DHT22;11438;52.044;8.716;2023-09-12T13:12:49;25.60;99.90
22544;DHT22;11438;52.044;8.716;2023-09-12T13:15:15;25.70;99.90
22544;DHT22;11438;52.044;8.716;2023-09-12T13:17:42;25.70;99.90
22544;DHT22;11438;52.044;8.716;2023-09-12T13:20:08;25.70;99.90
22544;DHT22;11438;52.044;8.716;2023-09-12T13:22:38;25.80;99.90
22544;DHT22;11438;52.044;8.716;2023-09-12T13:25:04;25.80;99.90
22544;DHT22;11438;52.044;8.716;2023-09-12T13:27:30;25.80;99.90
22544;DHT22;11438;52.044;8.716;2023-09-12T13:29:56;25.90;99.90
22544;DHT22;11438;52.044;8.716;2023-09-12T13:32:21;25.90;99.90
22544;DHT22;11438;52.044;8.716;2023-09-12T13:34:47;25.90;99.90
22544;DHT22;11438;52.044;8.716;2023-09-12T13:37:12;25.90;99.90
22544;DHT22;11438;52.044;8.716;2023-09-12T13:39:38;25.90;99.90
22544;DHT22;11438;52.044;8.716;2023-09-12T13:42:06;25.90;99.90
22544;DHT22;11438;52.044;8.716;2023-09-12T13:44:33;25.90;99.90
22544;DHT22;11438;52.044;8.716;2023-09-12T13:46:59;25.90;99.90
22544;DHT22;11438;52.044;8.716;2023-09-12T13:49:24;25.90;99.90
22544;DHT22;11438;52.044;8.716;2023-09-12T13:51:50;25.90;99.90
22544;DHT22;11438;52.044;8.716;2023-09-12T13:54:15;25.90;99.90
22544;DHT22;11438;52.044;8.716;2023-09-12T13:56:41;25.90;99.90
22544;DHT22;11438;52.044;8.716;2023-09-12T13:59:07;25.90;99.90
22544;DHT22;11438;52.044;8.716;2023-09-12T14:01:33;26.00;99.90
22544;DHT22;11438;52.044;8.716;2023-09-12T14:03:58;26.00;99.90
22544;DHT22;11438;52.044;8.716;2023-09-12T14:06:24;26.00;99.90
22544;DHT22;11438;52.044;8.716;2023-09-12T14:08:49;26.00;99.90
22544;DHT22;11438;52.044;8.716;2023-09-12T14:11:15;26.00;99.90
22544;DHT22;11438;52.044;8.716;2023-09-12T14:13:40;26.00;99.90
22544;DHT22;11438;52.044;8.716;2023-09-12T14:16:06;26.00;99.90
22544;DHT22;11438;52.044;8.716;2023-09-12T14:18:31;26.00;99.90
22544;DHT22;11438;52.044;8.716;2023-09-12T14:20:57;26.00;99.90
22544;DHT22;11438;52.044;8.716;2023-09-12T14:23:23;26.00;99.90
22544;DHT22;11438;52.044;8.716;2023-09-12T14:25:48;26.00;99.80
22544;DHT22;11438;52.044;8.716;2023-09-12T14:28:14;26.00;99.90
22544;DHT22;11438;52.044;8.716;2023-09-12T14:30:39;26.00;99.60
22544;DHT22;11438;52.044;8.716;2023-09-12T14:33:09;26.00;99.90
22544;DHT22;11438;52.044;8.716;2023-09-12T14:35:35;26.00;99.90
22544;DHT22;11438;52.044;8.716;2023-09-12T14:38:01;26.00;99.90
22544;DHT22;11438;52.044;8.716;2023-09-12T14:40:27;26.00;99.90
22544;DHT22;11438;52.044;8.716;2023-09-12T14:42:53;26.00;99.90
22544;DHT22;11438;52.044;8.716;2023-09-12T14:45:19;26.00;99.90
22544;DHT22;11438;52.044;8.716;2023-09-12T14:47:44;26.00;99.90
22544;DHT22;11438;52.044;8.716;2023-09-12T14:50:10;26.00;99.90
22544;DHT22;11438;52.044;8.716;2023-09-12T14:52:36;26.00;99.90
22544;DHT22;11438;52.044;8.716;2023-09-12T14:55:04;26.10;99.90
22544;DHT22;11438;52.044;8.716;2023-09-12T14:57:30;26.10;99.90
22544;DHT22;11438;52.044;8.716;2023-09-12T14:59:55;26.10;99.90
22544;DHT22;11438;52.044;8.716;2023-09-12T15:02:24;26.10;99.90
22544;DHT22;11438;52.044;8.716;2023-09-12T15:04:49;26.10;99.90
22544;DHT22;11438;52.044;8.716;2023-09-12T15:07:15;26.10;99.90
22544;DHT22;11438;52.044;8.716;2023-09-12T15:09:41;26.10;99.90
22544;DHT22;11438;52.044;8.716;2023-09-12T15:12:07;26.10;99.90
22544;DHT22;11438;52.044;8.716;2023-09-12T15:14:34;26.10;99.90
22544;DHT22;11438;52.044;8.716;2023-09-12T15:16:59;26.10;99.90
22544;DHT22;11438;52.044;8.716;2023-09-12T15:19:25;26.10;99.90
22544;DHT22;11438;52.044;8.716;2023-09-12T15:21:51;26.10;99.90
22544;DHT22;11438;52.044;8.716;2023-09-12T15:24:16;26.10;99.90
22544;DHT22;11438;52.044;8.716;2023-09-12T15:26:42;26.10;99.90
22544;DHT22;11438;52.044;8.716;2023-09-12T15:29:07;26.10;99.90
22544;DHT22;11438;52.044;8.716;2023-09-12T15:31:33;26.10;99.90
22544;DHT22;11438;52.044;8.716;2023-09-12T15:33:59;26.20;99.90
22544;DHT22;11438;52.044;8.716;2023-09-12T15:36:24;26.20;99.90
22544;DHT22;11438;52.044;8.716;2023-09-12T15:38:50;26.20;99.90
22544;DHT22;11438;52.044;8.716;2023-09-12T15:41:15;26.20;99.90